Time;durP1;ratioP1;P1;durP2;ratioP2;P2;SDS_P1;SDS_P2;PMS_P1;PMS_P2;Temp;Humidity;BMP_temperature;BMP_pressure;BME280_temperature;BME280_humidity;BME280_pressure;Samples;Min_cycle;Max_cycle;Signal;HPM_P1;HPM_P2
2022/02/06 00:00:39;;;;;;;165.53;99.70;;;4.60;99.90;;;;;;5053615;28;20082;-74
2022/02/06 00:03:07;;;;;;;179.07;99.53;;;4.40;99.90;;;;;;5070737;28;20115;-75
2022/02/06 00:05:34;;;;;;;164.02;96.07;;;4.60;99.90;;;;;;5070709;28;20037;-75
2022/02/06 00:08:07;;;;;;;168.85;93.90;;;4.60;99.90;;;;;;5070375;28;20066;-75
2022/02/06 00:10:36;;;;;;;158.15;92.03;;;4.60;99.90;;;;;;5053635;28;20053;-75
2022/02/06 00:13:04;;;;;;;184.27;102.50;;;4.50;99.90;;;;;;5071066;28;20039;-79
2022/02/06 00:15:32;;;;;;;224.30;117.03;;;4.60;99.90;;;;;;5070484;28;20041;-82
2022/02/06 00:17:59;;;;;;;187.55;102.47;;;4.50;99.90;;;;;;5071917;28;20074;-85
2022/02/06 00:20:39;;;;;;;182.23;100.47;;;4.50;99.90;;;;;;5071073;28;20055;-82
2022/02/06 00:23:10;;;;;;;188.10;102.50;;;4.50;99.90;;;;;;5071288;28;20044;-84
2022/02/06 00:26:03;;;;;;;177.65;99.28;;;4.50;99.90;;;;;;5086521;28;20555;-85
2022/02/06 00:31:10;;;;;;;156.38;91.43;;;4.40;99.90;;;;;;5070847;28;20040;-79
2022/02/06 00:33:53;;;;;;;159.73;92.22;;;4.50;99.90;;;;;;5071211;28;20059;-77
2022/02/06 00:39:06;;;;;;;165.60;92.10;;;4.70;99.90;;;;;;5071106;28;20647;-84
2022/02/06 00:41:36;;;;;;;171.77;94.75;;;4.70;99.90;;;;;;5071272;28;20060;-82
2022/02/06 00:44:06;;;;;;;174.75;97.00;;;4.70;99.90;;;;;;5070838;28;20044;-82
2022/02/06 00:46:37;;;;;;;162.43;95.43;;;4.40;99.90;;;;;;5070756;28;20042;-82
2022/02/06 00:49:22;;;;;;;181.30;97.68;;;4.40;99.90;;;;;;5070773;28;20044;-80
2022/02/06 00:51:55;;;;;;;213.50;117.25;;;4.50;99.90;;;;;;5071267;28;20047;-78
2022/02/06 00:54:23;;;;;;;175.60;99.57;;;4.80;99.90;;;;;;5070983;28;20461;-80
2022/02/06 00:56:50;;;;;;;168.63;91.95;;;4.80;99.90;;;;;;5071411;28;20040;-83
2022/02/06 00:59:18;;;;;;;162.70;91.72;;;4.60;99.90;;;;;;5070742;28;20045;-81
2022/02/06 01:01:45;;;;;;;158.10;88.60;;;4.70;99.90;;;;;;5070884;28;20036;-79
2022/02/06 01:04:14;;;;;;;158.40;92.22;;;4.80;99.90;;;;;;5072334;28;20036;-78
2022/02/06 01:06:42;;;;;;;167.38;90.72;;;4.80;99.90;;;;;;5077139;28;20035;-80
2022/02/06 01:09:09;;;;;;;144.48;85.03;;;4.70;99.90;;;;;;5078147;28;20044;-79
2022/02/06 01:11:38;;;;;;;144.13;83.93;;;4.70;99.90;;;;;;5079549;28;20029;-81
2022/02/06 01:16:39;;;;;;;137.25;82.65;;;4.80;99.90;;;;;;5079951;28;20028;-79
2022/02/06 01:19:21;;;;;;;151.55;80.97;;;4.60;99.90;;;;;;5082922;28;20726;-80
2022/02/06 01:22:05;;;;;;;147.55;81.05;;;4.30;99.90;;;;;;5081938;28;20045;-79
2022/02/06 01:27:10;;;;;;;142.60;86.50;;;4.40;99.90;;;;;;5082900;28;20369;-82
2022/02/06 01:29:48;;;;;;;169.38;90.53;;;4.50;99.90;;;;;;5065605;28;20059;-81
2022/02/06 01:32:19;;;;;;;114.03;66.63;;;4.60;99.90;;;;;;5081218;28;20039;-80
2022/02/06 01:34:53;;;;;;;113.30;66.75;;;4.70;99.90;;;;;;5081432;28;20485;-73
2022/02/06 01:37:30;;;;;;;121.78;65.72;;;4.60;99.90;;;;;;5078633;28;20036;-79
2022/02/06 01:40:06;;;;;;;123.68;69.15;;;4.70;99.90;;;;;;5072449;28;20515;-78
2022/02/06 01:42:48;;;;;;;128.93;75.05;;;4.80;99.90;;;;;;5074182;28;20036;-75
2022/02/06 02:04:29;;;;;;;102.10;57.90;;;5.00;99.90;;;;;;5073124;28;20354;-78
2022/02/06 02:08:11;;;;;;;111.53;62.42;;;4.70;99.90;;;;;;5073828;28;20043;-77
2022/02/06 02:47:20;;;;;;;123.72;67.70;;;4.60;99.90;;;;;;5092804;28;20040;-82
2022/02/06 02:49:54;;;;;;;115.90;66.47;;;4.60;99.90;;;;;;5093000;28;20500;-78
2022/02/06 03:00:59;;;;;;;129.30;74.75;;;4.10;99.90;;;;;;5093045;28;20389;-76
2022/02/06 03:03:37;;;;;;;125.90;70.95;;;4.20;99.90;;;;;;5092980;28;20051;-78
2022/02/06 03:06:07;;;;;;;126.80;73.72;;;4.20;99.90;;;;;;5091548;28;20093;-78
2022/02/06 03:08:36;;;;;;;136.23;73.75;;;4.00;99.90;;;;;;5072750;28;20048;-78
2022/02/06 03:11:07;;;;;;;126.85;74.97;;;4.10;99.90;;;;;;5072344;28;20082;-78
2022/02/06 03:16:30;;;;;;;117.93;67.20;;;4.10;99.90;;;;;;5071615;28;20476;-80
2022/02/06 03:21:52;;;;;;;126.93;76.53;;;4.50;99.90;;;;;;5049380;28;20049;-83
2022/02/06 03:24:22;;;;;;;138.60;76.80;;;4.60;99.90;;;;;;5071839;28;20488;-81
2022/02/06 03:26:52;;;;;;;135.52;75.78;;;4.60;99.90;;;;;;5072324;28;20392;-81
2022/02/06 03:29:21;;;;;;;133.80;77.30;;;4.40;99.90;;;;;;5071919;28;20041;-81
2022/02/06 03:31:50;;;;;;;139.68;78.25;;;4.40;99.90;;;;;;5072476;28;20047;-87
2022/02/06 03:34:18;;;;;;;126.88;76.43;;;4.20;99.90;;;;;;5072579;28;20388;-87
2022/02/06 03:36:45;;;;;;;126.85;74.95;;;4.20;99.90;;;;;;5075115;28;20484;-84
2022/02/06 03:39:15;;;;;;;137.40;76.80;;;4.30;99.90;;;;;;5071616;28;20068;-82
2022/02/06 03:41:54;;;;;;;134.57;74.05;;;4.30;99.90;;;;;;5071693;28;20036;-76
2022/02/06 03:47:45;;;;;;;123.93;68.03;;;4.20;99.90;;;;;;5071741;28;20094;-80
2022/02/06 03:49:54;;;;;;;103.90;62.78;;;4.20;99.90;;;;;;5068935;28;20056;-80
2022/02/06 03:52:44;;;;;;;107.70;59.95;;;4.50;99.90;;;;;;5072247;28;20041;-78
2022/02/06 03:55:18;;;;;;;100.75;60.08;;;4.60;99.90;;;;;;5071851;28;20067;-81
2022/02/06 03:57:47;;;;;;;116.00;68.97;;;4.80;99.90;;;;;;5071779;28;20037;-78
2022/02/06 04:00:16;;;;;;;123.75;70.60;;;4.60;99.90;;;;;;5071810;28;20366;-80
2022/02/06 04:02:45;;;;;;;129.75;72.72;;;4.40;99.90;;;;;;5086980;28;20381;-80
2022/02/06 04:05:17;;;;;;;123.25;70.63;;;4.40;99.90;;;;;;5071918;28;20036;-77
2022/02/06 04:07:46;;;;;;;132.00;73.25;;;4.50;99.90;;;;;;5072248;28;20381;-81
2022/02/06 04:10:16;;;;;;;125.95;72.30;;;4.40;99.90;;;;;;5071778;28;20041;-80
2022/02/06 04:12:45;;;;;;;119.57;70.00;;;4.30;99.90;;;;;;5071297;28;20041;-81
2022/02/06 04:15:24;;;;;;;115.78;64.13;;;4.40;99.90;;;;;;5070335;28;20044;-80
2022/02/06 04:18:06;;;;;;;101.82;59.78;;;4.50;99.90;;;;;;5071497;28;20036;-81
2022/02/06 04:20:33;;;;;;;97.32;56.75;;;4.60;99.90;;;;;;5071972;28;20056;-82
2022/02/06 04:23:01;;;;;;;100.20;59.90;;;4.70;99.90;;;;;;5071145;28;20389;-80
2022/02/06 04:25:28;;;;;;;105.53;58.33;;;4.80;99.90;;;;;;5071465;28;20504;-79
2022/02/06 04:27:55;;;;;;;97.43;56.50;;;4.80;99.90;;;;;;5071375;28;20381;-77
2022/02/06 04:30:23;;;;;;;96.80;55.50;;;4.80;99.90;;;;;;5070212;28;20046;-83
2022/02/06 04:32:50;;;;;;;121.40;65.30;;;4.80;99.90;;;;;;5070111;28;20489;-84
2022/02/06 04:35:19;;;;;;;115.30;64.47;;;4.70;99.90;;;;;;5071592;28;20044;-82
2022/02/06 04:46:41;;;;;;;87.18;51.55;;;4.40;99.90;;;;;;5071456;28;20042;-79
2022/02/06 04:54:32;;;;;;;127.70;70.05;;;4.70;99.90;;;;;;5075206;28;20037;-77
2022/02/06 05:29:33;;;;;;;102.75;58.55;;;4.00;99.90;;;;;;5074153;28;20503;-77
2022/02/06 05:32:17;;;;;;;106.25;58.20;;;4.00;99.90;;;;;;5074740;28;20047;-83
2022/02/06 05:34:44;;;;;;;100.07;55.40;;;3.90;99.90;;;;;;5074071;28;20036;-78
2022/02/06 05:37:14;;;;;;;99.28;56.33;;;4.00;99.90;;;;;;5074607;28;20033;-77
2022/02/06 05:39:41;;;;;;;98.25;55.05;;;4.00;99.90;;;;;;5074261;28;20028;-79
2022/02/06 05:42:09;;;;;;;87.95;52.25;;;3.80;99.90;;;;;;5074356;28;20045;-78
2022/02/06 05:44:36;;;;;;;91.60;52.85;;;3.90;99.90;;;;;;5074133;28;20396;-81
2022/02/06 05:47:04;;;;;;;101.10;57.58;;;3.90;99.90;;;;;;5072760;28;20052;-75
2022/02/06 05:49:31;;;;;;;89.13;51.22;;;3.80;99.90;;;;;;5073745;28;20043;-77
2022/02/06 05:51:58;;;;;;;88.68;51.22;;;3.90;99.90;;;;;;5074309;28;20533;-80
2022/02/06 05:54:26;;;;;;;81.32;50.20;;;4.00;99.90;;;;;;5073686;28;20375;-82
2022/02/06 05:56:53;;;;;;;73.05;47.53;;;3.90;99.90;;;;;;5074047;28;20051;-79
2022/02/06 05:59:20;;;;;;;76.65;46.22;;;3.90;99.90;;;;;;5073680;28;20055;-78
2022/02/06 06:01:51;;;;;;;73.20;45.20;;;4.00;99.90;;;;;;5073824;28;20032;-78
2022/02/06 06:04:18;;;;;;;82.28;47.50;;;3.90;99.90;;;;;;5073121;28;20036;-80
2022/02/06 06:06:46;;;;;;;80.07;48.58;;;3.80;99.90;;;;;;5073926;28;20036;-83
2022/02/06 06:09:13;;;;;;;79.55;46.83;;;3.70;99.90;;;;;;5072395;28;20028;-84
2022/02/06 06:11:41;;;;;;;77.80;47.28;;;3.70;99.90;;;;;;5074258;28;20520;-82
2022/02/06 06:14:08;;;;;;;74.75;45.17;;;3.80;99.90;;;;;;5073781;28;20029;-81
2022/02/06 06:16:35;;;;;;;76.53;44.30;;;3.90;99.90;;;;;;5073578;28;20040;-79
2022/02/06 06:19:04;;;;;;;71.78;44.25;;;3.90;99.90;;;;;;5073736;28;20044;-83
2022/02/06 06:21:41;;;;;;;76.63;42.63;;;3.90;99.90;;;;;;5073154;28;20409;-82
2022/02/06 06:24:11;;;;;;;73.28;45.78;;;4.10;99.90;;;;;;5072469;28;20046;-80
2022/02/06 06:26:39;;;;;;;79.13;45.65;;;4.30;99.90;;;;;;5073505;28;20389;-80
2022/02/06 06:29:06;;;;;;;73.93;43.63;;;4.20;99.90;;;;;;5073537;28;20044;-78
2022/02/06 06:31:34;;;;;;;71.50;44.63;;;4.30;99.90;;;;;;5072713;28;20043;-79
2022/02/06 06:34:02;;;;;;;79.80;48.60;;;4.30;99.90;;;;;;5071982;28;20037;-81
2022/02/06 06:36:31;;;;;;;78.13;46.47;;;4.50;99.90;;;;;;5072144;28;20045;-81
2022/02/06 06:38:58;;;;;;;77.63;48.38;;;4.60;99.90;;;;;;5073087;28;20047;-78
2022/02/06 06:41:45;;;;;;;84.07;48.90;;;4.70;99.90;;;;;;5072781;28;20376;-79
2022/02/06 06:44:13;;;;;;;82.57;48.38;;;4.80;99.90;;;;;;5072977;28;20044;-79
2022/02/06 06:46:40;;;;;;;83.47;48.03;;;4.70;99.90;;;;;;5073043;28;20111;-78
2022/02/06 06:49:07;;;;;;;85.07;49.10;;;4.60;99.90;;;;;;5072784;28;20039;-85
2022/02/06 06:51:34;;;;;;;82.13;49.72;;;4.70;99.90;;;;;;5071184;28;20051;-76
2022/02/06 06:54:01;;;;;;;85.13;50.55;;;4.80;99.90;;;;;;5072777;28;20033;-78
2022/02/06 06:56:41;;;;;;;88.03;52.03;;;4.90;99.90;;;;;;5072753;28;20044;-79
2022/02/06 06:59:26;;;;;;;85.80;51.63;;;5.00;99.90;;;;;;5072220;28;20470;-81
2022/02/06 07:02:15;;;;;;;92.50;53.00;;;5.00;99.90;;;;;;5072357;28;20115;-79
2022/02/06 07:04:40;;;;;;;84.75;49.13;;;5.10;99.90;;;;;;5072612;28;20040;-80
2022/02/06 07:07:08;;;;;;;81.65;50.83;;;5.20;99.90;;;;;;5072367;28;20040;-78
2022/02/06 07:09:35;;;;;;;81.07;52.45;;;5.10;99.90;;;;;;5072101;28;20515;-81
2022/02/06 07:12:04;;;;;;;88.60;53.60;;;5.20;99.90;;;;;;5072536;28;20039;-79
2022/02/06 07:14:32;;;;;;;92.38;52.85;;;5.20;99.90;;;;;;5070469;28;20045;-83
2022/02/06 07:16:59;;;;;;;81.55;49.85;;;5.10;99.90;;;;;;5071838;28;20043;-82
2022/02/06 07:19:26;;;;;;;74.28;49.00;;;4.80;99.90;;;;;;5072122;28;20044;-80
2022/02/06 07:21:54;;;;;;;81.88;50.05;;;4.80;99.90;;;;;;5071983;28;20397;-80
2022/02/06 07:24:25;;;;;;;83.68;51.05;;;5.00;99.90;;;;;;5072082;28;20055;-82
2022/02/06 07:26:57;;;;;;;89.78;52.75;;;5.10;99.90;;;;;;5072409;28;20036;-80
2022/02/06 07:29:24;;;;;;;84.78;53.42;;;5.10;99.90;;;;;;5070799;28;20405;-82
2022/02/06 07:31:54;;;;;;;81.28;53.88;;;5.20;99.90;;;;;;5072181;28;20040;-80
2022/02/06 07:34:21;;;;;;;95.25;54.80;;;5.10;99.90;;;;;;5071687;28;20032;-78
2022/02/06 07:36:48;;;;;;;88.25;54.25;;;5.20;99.90;;;;;;5072137;28;20059;-80
2022/02/06 07:39:16;;;;;;;90.82;54.65;;;5.20;99.90;;;;;;5072279;28;20385;-82
2022/02/06 07:41:43;;;;;;;90.53;56.05;;;5.40;99.90;;;;;;5072239;28;20033;-86
2022/02/06 07:44:10;;;;;;;88.82;53.67;;;5.00;99.90;;;;;;5071795;28;20039;-82
2022/02/06 07:46:43;;;;;;;90.28;54.17;;;5.20;99.90;;;;;;5084960;28;20032;-84
2022/02/06 07:49:10;;;;;;;94.53;55.22;;;5.40;99.90;;;;;;5098640;28;20692;-73
2022/02/06 07:51:39;;;;;;;102.22;58.60;;;5.70;99.90;;;;;;5071465;28;20048;-75
2022/02/06 07:54:07;;;;;;;144.25;79.60;;;6.00;99.90;;;;;;5081206;28;20028;-76
2022/02/06 07:56:34;;;;;;;107.28;62.28;;;6.60;99.90;;;;;;5080639;28;20044;-74
2022/02/06 07:59:02;;;;;;;106.07;63.90;;;7.00;99.90;;;;;;5080499;28;20051;-71
2022/02/06 08:01:30;;;;;;;100.75;61.10;;;7.10;99.90;;;;;;5081090;28;20060;-74
2022/02/06 08:03:57;;;;;;;89.13;53.33;;;7.50;99.90;;;;;;5081639;28;20036;-73
2022/02/06 08:06:24;;;;;;;113.30;70.22;;;7.50;99.90;;;;;;5079865;28;20626;-72
2022/02/06 08:08:52;;;;;;;135.27;83.25;;;7.80;99.90;;;;;;5080156;28;20385;-72
2022/02/06 08:11:19;;;;;;;122.53;75.93;;;8.30;99.90;;;;;;5079325;28;20036;-74
2022/02/06 08:13:54;;;;;;;94.93;58.50;;;8.50;99.90;;;;;;5084090;28;20040;-75
2022/02/06 08:16:22;;;;;;;94.82;56.47;;;7.90;99.90;;;;;;5077709;28;20090;-74
2022/02/06 08:18:49;;;;;;;95.22;57.55;;;8.10;99.90;;;;;;5056059;28;20401;-75
2022/02/06 08:21:18;;;;;;;101.35;60.00;;;8.10;99.90;;;;;;5064637;28;20048;-73
2022/02/06 08:23:45;;;;;;;106.68;63.55;;;8.20;99.90;;;;;;5063588;28;20036;-75
2022/02/06 08:26:14;;;;;;;103.38;67.88;;;8.00;99.90;;;;;;5067439;28;20123;-74
2022/02/06 08:28:41;;;;;;;119.07;72.68;;;7.80;99.90;;;;;;5055783;28;20126;-76
2022/02/06 08:31:09;;;;;;;115.90;71.90;;;7.90;99.90;;;;;;5055116;28;20047;-75
2022/02/06 08:33:37;;;;;;;119.90;73.65;;;7.80;99.90;;;;;;5071521;28;20134;-76
2022/02/06 08:36:04;;;;;;;119.03;73.38;;;7.90;99.90;;;;;;5054969;28;20142;-74
2022/02/06 08:38:32;;;;;;;113.80;71.90;;;8.10;99.90;;;;;;5073385;28;20037;-74
2022/02/06 08:40:59;;;;;;;103.53;68.45;;;8.20;99.90;;;;;;5073502;28;20124;-75
2022/02/06 08:43:26;;;;;;;109.78;66.32;;;8.40;99.90;;;;;;5071169;28;20040;-75
2022/02/06 08:45:54;;;;;;;87.28;57.45;;;8.30;99.90;;;;;;5072460;28;20074;-75
2022/02/06 08:48:21;;;;;;;94.45;57.83;;;8.20;99.90;;;;;;5070280;28;20049;-73
2022/02/06 08:50:48;;;;;;;87.53;55.53;;;8.40;99.90;;;;;;5073066;28;20040;-76
2022/02/06 08:53:16;;;;;;;73.13;48.85;;;8.30;99.90;;;;;;5073268;28;20437;-78
2022/02/06 08:55:48;;;;;;;55.72;37.60;;;8.30;99.90;;;;;;5085429;28;20044;-74
2022/02/06 08:58:16;;;;;;;48.53;32.25;;;8.60;99.90;;;;;;5054906;28;20545;-75
2022/02/06 09:00:43;;;;;;;45.70;31.33;;;8.60;99.90;;;;;;5073001;28;20554;-74
2022/02/06 09:03:10;;;;;;;41.65;29.92;;;8.60;99.90;;;;;;5070537;28;20037;-75
2022/02/06 09:05:38;;;;;;;43.22;29.40;;;8.90;99.90;;;;;;5072549;28;20381;-74
2022/02/06 09:08:06;;;;;;;49.22;30.42;;;9.10;99.90;;;;;;5071303;28;20032;-74
2022/02/06 09:10:36;;;;;;;41.65;29.02;;;9.10;99.90;;;;;;5064412;28;20032;-74
2022/02/06 09:13:08;;;;;;;42.45;27.70;;;9.20;99.90;;;;;;5072303;28;20047;-75
2022/02/06 09:15:35;;;;;;;46.30;29.75;;;9.40;99.90;;;;;;5071406;28;20039;-75
2022/02/06 09:18:03;;;;;;;42.50;28.73;;;9.40;99.90;;;;;;5072301;28;20037;-73
2022/02/06 09:20:33;;;;;;;39.08;27.17;;;9.20;99.90;;;;;;5069358;28;20056;-74
2022/02/06 09:23:00;;;;;;;41.53;28.07;;;9.10;99.90;;;;;;5072808;28;20044;-79
2022/02/06 09:25:28;;;;;;;37.63;26.88;;;9.10;99.90;;;;;;5070937;28;20040;-74
2022/02/06 09:27:56;;;;;;;123.80;72.60;;;9.10;99.90;;;;;;5072475;28;20029;-76
2022/02/06 09:30:26;;;;;;;140.60;80.93;;;9.50;99.90;;;;;;5070163;28;20086;-76
2022/02/06 09:35:23;;;;;;;43.63;29.17;;;10.00;99.90;;;;;;5070082;28;19952;-82
2022/02/06 09:37:51;;;;;;;41.30;28.45;;;9.90;99.90;;;;;;5073249;28;20086;-76
2022/02/06 09:40:20;;;;;;;40.65;28.45;;;10.00;99.90;;;;;;5070805;28;20040;-79
2022/02/06 09:42:52;;;;;;;43.10;29.65;;;10.00;99.90;;;;;;5055369;28;20117;-76
2022/02/06 09:45:28;;;;;;;41.90;27.95;;;10.20;99.90;;;;;;5067686;28;20048;-81
2022/02/06 09:47:59;;;;;;;39.45;26.02;;;10.10;99.90;;;;;;5071262;28;20043;-76
2022/02/06 09:50:29;;;;;;;42.83;27.73;;;10.30;99.90;;;;;;5053445;28;20059;-76
2022/02/06 09:52:59;;;;;;;88.63;53.95;;;10.40;99.90;;;;;;5071556;28;20044;-79
2022/02/06 09:55:28;;;;;;;91.25;51.70;;;10.80;99.90;;;;;;5085414;28;20086;-77
2022/02/06 09:58:14;;;;;;;54.92;37.10;;;11.00;99.90;;;;;;5069174;28;20052;-77
2022/02/06 10:00:45;;;;;;;42.40;30.05;;;11.50;98.90;;;;;;5065530;28;20048;-78
2022/02/06 10:03:14;;;;;;;49.38;32.22;;;11.70;96.80;;;;;;5070374;28;20036;-73
2022/02/06 10:05:44;;;;;;;44.08;26.55;;;11.70;96.50;;;;;;5079463;28;20048;-81
2022/02/06 10:08:21;;;;;;;47.00;31.95;;;11.70;96.20;;;;;;5085908;28;20362;-77
2022/02/06 10:11:14;;;;;;;43.33;29.77;;;11.50;96.40;;;;;;5074126;28;20045;-79
2022/02/06 10:13:44;;;;;;;45.55;30.65;;;11.10;96.60;;;;;;5092843;28;20040;-81
2022/02/06 10:16:17;;;;;;;46.85;29.85;;;11.10;96.90;;;;;;5109180;28;20111;-80
2022/02/06 10:18:45;;;;;;;40.05;29.40;;;11.30;96.10;;;;;;5092544;28;20128;-81
2022/02/06 10:21:21;;;;;;;47.15;31.33;;;11.20;96.90;;;;;;5091322;28;20048;-81
2022/02/06 10:24:12;;;;;;;43.47;29.98;;;11.20;96.60;;;;;;5109112;28;20036;-77
2022/02/06 10:26:51;;;;;;;40.92;29.52;;;11.60;96.20;;;;;;5093645;28;20040;-77
2022/02/06 10:29:30;;;;;;;46.28;30.52;;;11.80;94.80;;;;;;5092949;28;20110;-76
2022/02/06 10:32:03;;;;;;;43.40;30.75;;;11.60;94.90;;;;;;5092313;28;20042;-78
2022/02/06 10:34:36;;;;;;;42.92;28.95;;;12.00;93.70;;;;;;5093138;28;20032;-80
2022/02/06 10:37:25;;;;;;;42.15;28.85;;;12.30;93.40;;;;;;5091365;28;20039;-77
2022/02/06 10:40:06;;;;;;;49.22;28.80;;;12.60;92.20;;;;;;5051497;28;20033;-77
2022/02/06 10:42:41;;;;;;;42.03;28.48;;;12.20;91.80;;;;;;5051247;28;20029;-77
2022/02/06 10:45:19;;;;;;;39.92;27.52;;;11.80;93.70;;;;;;5052702;28;20041;-77
2022/02/06 10:47:48;;;;;;;39.13;27.45;;;11.80;94.10;;;;;;5052109;28;20039;-77
2022/02/06 10:50:22;;;;;;;42.13;26.05;;;12.10;93.10;;;;;;5051843;28;20055;-77
2022/02/06 10:52:50;;;;;;;38.22;26.67;;;12.20;92.50;;;;;;5051827;28;20068;-76
2022/02/06 10:55:20;;;;;;;52.70;35.55;;;12.70;93.90;;;;;;5068185;28;20037;-78
2022/02/06 10:57:56;;;;;;;87.18;54.97;;;12.80;91.90;;;;;;5052494;28;20041;-78
2022/02/06 11:00:32;;;;;;;47.33;32.97;;;13.20;91.50;;;;;;5052812;28;20037;-76
2022/02/06 11:03:20;;;;;;;34.17;25.27;;;13.40;90.00;;;;;;5053887;28;20049;-76
2022/02/06 11:05:52;;;;;;;36.58;24.80;;;13.30;87.20;;;;;;5052483;28;20037;-78
2022/02/06 11:08:32;;;;;;;40.95;25.70;;;13.40;85.70;;;;;;5057320;28;20041;-76
2022/02/06 11:11:09;;;;;;;35.22;24.95;;;13.80;85.10;;;;;;5071327;28;20047;-79
2022/02/06 11:13:37;;;;;;;30.75;22.55;;;14.50;80.20;;;;;;5070731;28;20123;-79
2022/02/06 11:16:16;;;;;;;33.17;23.27;;;14.80;77.10;;;;;;5053623;28;20044;-77
2022/02/06 11:18:57;;;;;;;32.10;22.60;;;15.00;75.50;;;;;;5072303;28;20457;-75
2022/02/06 11:21:27;;;;;;;30.13;21.58;;;15.70;73.30;;;;;;5070906;28;20072;-75
2022/02/06 11:23:55;;;;;;;30.17;21.70;;;15.60;71.00;;;;;;5071997;28;20041;-78
2022/02/06 11:26:25;;;;;;;28.45;20.13;;;15.40;70.70;;;;;;5054289;28;20097;-76
2022/02/06 11:28:55;;;;;;;26.00;19.30;;;15.80;69.50;;;;;;5071940;28;20039;-74
2022/02/06 11:31:24;;;;;;;26.77;18.30;;;16.20;67.60;;;;;;5071668;28;20094;-78
2022/02/06 11:33:52;;;;;;;38.38;26.23;;;16.50;67.10;;;;;;5072063;28;20052;-77
2022/02/06 11:45:33;;;;;;;41.30;27.90;;;14.80;70.00;;;;;;5071608;28;20135;-73
2022/02/06 11:48:04;;;;;;;59.88;38.65;;;15.00;72.00;;;;;;5076913;28;20025;-75
2022/02/06 11:50:32;;;;;;;;;;;15.20;72.00;;;;;;5074466;28;20037;-74
2022/02/06 11:53:04;;;;;;;56.83;36.35;;;15.30;70.90;;;;;;5089609;28;19916;-72
2022/02/06 11:55:34;;;;;;;93.93;56.28;;;15.30;73.00;;;;;;5091603;28;20097;-76
2022/02/06 11:58:21;;;;;;;32.13;22.63;;;15.50;71.20;;;;;;5074277;28;20085;-77
2022/02/06 12:01:07;;;;;;;21.38;14.65;;;15.60;69.60;;;;;;5073491;28;20040;-79
2022/02/06 12:04:04;;;;;;;23.33;14.60;;;14.40;72.00;;;;;;5091799;28;20050;-75
2022/02/06 12:06:47;;;;;;;19.33;13.27;;;15.10;70.40;;;;;;5090547;28;20040;-78
2022/02/06 12:09:17;;;;;;;17.30;12.57;;;15.40;68.30;;;;;;5078709;28;20040;-75
2022/02/06 12:12:03;;;;;;;17.17;12.88;;;15.00;68.10;;;;;;5070802;28;20045;-76
2022/02/06 12:14:37;;;;;;;16.10;11.10;;;15.20;68.80;;;;;;5071116;28;20032;-75
2022/02/06 12:20:02;;;;;;;17.55;10.73;;;15.60;66.30;;;;;;5071518;28;20036;-78
2022/02/06 12:22:41;;;;;;;14.98;11.00;;;15.80;65.10;;;;;;5085212;28;20041;-77
2022/02/06 12:25:26;;;;;;;21.17;13.45;;;15.60;66.00;;;;;;5071041;28;20040;-76
2022/02/06 12:28:20;;;;;;;22.55;14.93;;;15.50;66.20;;;;;;5071116;28;20037;-76
2022/02/06 12:31:15;;;;;;;15.38;11.60;;;16.20;66.50;;;;;;5070956;28;20064;-74
2022/02/06 12:33:50;;;;;;;14.07;8.75;;;16.60;62.40;;;;;;5068464;28;20059;-74
2022/02/06 12:37:08;;;;;;;11.10;8.73;;;16.30;60.40;;;;;;5071184;28;20055;-77
2022/02/06 12:39:37;;;;;;;11.35;6.57;;;16.20;60.30;;;;;;5034411;28;20485;-75
2022/02/06 12:42:08;;;;;;;8.50;5.43;;;16.40;58.70;;;;;;5071002;28;20033;-75
2022/02/06 12:44:37;;;;;;;8.63;5.32;;;16.30;55.80;;;;;;5070950;28;20036;-75
2022/02/06 12:47:12;;;;;;;8.48;5.55;;;16.60;52.80;;;;;;5070863;28;20055;-78
2022/02/06 12:49:41;;;;;;;10.38;8.48;;;17.20;52.90;;;;;;5071016;28;20048;-76
2022/02/06 12:52:09;;;;;;;13.63;9.35;;;17.30;54.50;;;;;;5070974;28;20545;-80
2022/02/06 12:54:36;;;;;;;13.43;9.05;;;17.20;55.00;;;;;;5059583;28;20382;-76
2022/02/06 12:57:04;;;;;;;11.45;8.50;;;17.30;55.20;;;;;;5050953;28;20048;-77
2022/02/06 12:59:32;;;;;;;10.48;7.00;;;17.80;52.70;;;;;;5050097;28;20389;-76
2022/02/06 13:02:00;;;;;;;10.77;7.60;;;17.80;51.80;;;;;;5050781;28;20048;-76
2022/02/06 13:04:30;;;;;;;9.68;7.20;;;17.90;51.10;;;;;;5050201;28;20568;-77
2022/02/06 13:07:04;;;;;;;10.13;6.82;;;18.00;50.60;;;;;;5052057;28;20428;-76
2022/02/06 13:09:45;;;;;;;13.38;8.98;;;18.40;50.10;;;;;;5070697;28;20029;-76
2022/02/06 13:12:28;;;;;;;12.55;9.85;;;18.20;50.60;;;;;;5063720;28;20041;-76
2022/02/06 13:18:13;;;;;;;13.18;9.93;;;19.50;48.50;;;;;;5053680;28;20430;-74
2022/02/06 13:23:44;;;;;;;11.45;8.60;;;20.10;47.50;;;;;;5053818;28;20111;-77
2022/02/06 13:27:07;;;;;;;11.23;8.65;;;19.70;47.50;;;;;;5036929;28;20028;-77
2022/02/06 13:35:23;;;;;;;11.93;7.90;;;19.80;47.40;;;;;;4995598;28;20399;-76
2022/02/06 13:38:01;;;;;;;11.85;8.35;;;19.60;48.10;;;;;;5036283;28;20037;-74
2022/02/06 13:40:33;;;;;;;13.23;9.23;;;19.70;47.70;;;;;;5052580;28;20060;-74
2022/02/06 13:43:05;;;;;;;12.18;9.15;;;20.50;47.10;;;;;;5088418;28;20045;-74
2022/02/06 13:45:38;;;;;;;14.52;9.85;;;20.90;47.00;;;;;;5056844;28;20041;-76
2022/02/06 13:48:09;;;;;;;11.85;8.90;;;20.70;46.50;;;;;;5089753;28;20036;-79
2022/02/06 13:50:43;;;;;;;12.43;7.72;;;20.60;46.70;;;;;;5089722;28;20250;-73
2022/02/06 13:53:16;;;;;;;57.63;42.03;;;20.30;47.00;;;;;;5072364;28;20044;-72
2022/02/06 13:56:06;;;;;;;133.90;97.65;;;20.60;48.50;;;;;;5071902;28;20127;-75
2022/02/06 13:59:06;;;;;;;19.65;15.57;;;21.50;49.20;;;;;;5056694;28;20037;-75
2022/02/06 14:01:41;;;;;;;11.80;9.10;;;21.30;46.70;;;;;;5056375;28;20135;-77
2022/02/06 14:04:41;;;;;;;12.95;8.15;;;21.20;47.90;;;;;;5088194;28;20054;-75
2022/02/06 14:07:19;;;;;;;13.05;9.13;;;20.70;48.00;;;;;;5093378;28;20702;-80
2022/02/06 14:10:09;;;;;;;27.17;19.83;;;20.20;48.50;;;;;;5089419;28;20064;-78
2022/02/06 14:12:55;;;;;;;102.53;70.18;;;18.90;51.70;;;;;;5072308;28;20044;-75
2022/02/06 14:15:26;;;;;;;39.90;25.25;;;18.60;52.30;;;;;;5072915;28;20028;-77
2022/02/06 14:18:03;;;;;;;72.10;48.28;;;17.90;53.30;;;;;;5061660;28;20040;-77
2022/02/06 14:20:31;;;;;;;36.65;28.30;;;17.50;54.60;;;;;;5085246;28;20119;-83
2022/02/06 14:23:02;;;;;;;20.15;14.80;;;17.20;53.80;;;;;;5094864;28;20105;-77
2022/02/06 14:25:39;;;;;;;15.57;9.60;;;17.30;56.60;;;;;;5092427;28;20039;-82
2022/02/06 14:28:16;;;;;;;13.45;9.95;;;17.20;55.70;;;;;;5093532;28;20039;-80
2022/02/06 14:30:43;;;;;;;14.63;8.98;;;17.20;56.10;;;;;;5093674;28;20032;-75
2022/02/06 14:33:13;;;;;;;12.35;9.05;;;17.00;56.20;;;;;;5077515;28;20393;-81
2022/02/06 14:35:42;;;;;;;12.05;8.68;;;17.40;56.80;;;;;;5060819;28;20064;-81
2022/02/06 14:38:16;;;;;;;13.15;7.97;;;17.30;56.70;;;;;;5053239;28;20033;-76
2022/02/06 14:43:15;;;;;;;12.13;7.78;;;16.30;56.80;;;;;;5053185;28;20033;-78
2022/02/06 14:45:56;;;;;;;10.73;7.50;;;16.30;58.40;;;;;;5052966;28;20041;-77
2022/02/06 14:48:27;;;;;;;11.13;7.32;;;16.10;59.10;;;;;;5052828;28;20041;-77
2022/02/06 14:50:54;;;;;;;;;;;16.00;59.90;;;;;;5053146;28;20041;-77
2022/02/06 14:53:22;;;;;;;11.90;8.25;;;15.90;59.10;;;;;;5052755;28;19917;-77
2022/02/06 14:55:52;;;;;;;11.55;6.85;;;15.90;58.70;;;;;;5052411;28;20037;-77
2022/02/06 14:58:19;;;;;;;9.50;6.43;;;16.00;59.20;;;;;;5068472;28;20037;-78
2022/02/06 15:00:47;;;;;;;10.25;6.75;;;16.90;56.20;;;;;;5052566;28;20454;-76
2022/02/06 15:03:14;;;;;;;10.80;6.95;;;18.00;54.40;;;;;;5052949;28;20035;-75
2022/02/06 15:05:42;;;;;;;11.93;7.75;;;18.80;52.20;;;;;;5052082;28;20033;-75
2022/02/06 15:08:10;;;;;;;11.23;7.18;;;19.60;51.10;;;;;;5060144;28;20036;-75
2022/02/06 15:10:37;;;;;;;11.60;7.90;;;19.80;50.10;;;;;;5069581;28;20036;-74
2022/02/06 15:13:08;;;;;;;9.90;7.03;;;19.30;50.10;;;;;;5070456;28;20040;-75
2022/02/06 15:15:41;;;;;;;12.20;7.90;;;17.10;53.20;;;;;;5071533;28;20040;-78
2022/02/06 15:18:36;;;;;;;13.25;8.35;;;16.10;56.30;;;;;;5072104;28;20040;-75
2022/02/06 15:20:58;;;;;;;11.97;8.23;;;15.40;57.90;;;;;;5070966;28;20049;-74
2022/02/06 15:23:25;;;;;;;11.05;7.40;;;14.90;58.70;;;;;;5070616;28;20428;-76
2022/02/06 15:25:57;;;;;;;12.63;8.60;;;14.60;60.10;;;;;;5071092;28;20040;-77
2022/02/06 15:28:25;;;;;;;12.60;7.70;;;14.40;60.20;;;;;;5071459;28;20385;-73
2022/02/06 15:30:53;;;;;;;12.68;8.80;;;14.30;60.00;;;;;;5071458;28;20062;-79
2022/02/06 15:33:20;;;;;;;13.75;8.30;;;14.10;60.80;;;;;;5071500;28;20036;-77
2022/02/06 15:35:49;;;;;;;12.60;8.77;;;13.80;61.10;;;;;;5071108;28;20465;-77